Farmington, UT (84025)

01:49 MDT le 19 septembre 2014 (GMT -0600)
KUTBOUNT14 | Change Station
CLOSE
Current Station
Stations météorologiques personnelles
Location: Rogo's Weather Station (EW2533): Bountiful Bench, UT
Altitude: 5114 ft
Stations météo à proximité

Alt. 5114 ft 40.90 °N, 111.85 °W | Updated 10 seconds ago

Nuageux
Nuageux
67.5 ° F
Paraît 67.5 ° F
N
21.0
Vent Variable Vent de SE
Gusts 29.0 mph

Aujourd'hui
Haut(e) -- | Bas -- ° F
--% Risque de précip.
Hier
Haut(e) -- | Bas -- ° F
Precip. -- pouce
7:12 AM 7:29 PM
Lune descendante, 21% visible
Pression 29.96 pouce
Visibilité 10.0 Miles terrestres
Nuages Couvert 9000 ft
Point de rosée 50 ° F
Humidité 53%
Précipitations 0.00 pouce
Profondeur de la couche neigeuse Non disponible.
UV 0 sur 12
Pollen 5.30 sur 12
PM2.5 Bon
Flu Activity Non disponible.
SPECI KHIF 190740Z AUTO 06016G20KT 10SM OVC090 20/10 A2996 RMK AO2 WSHFT 28 LTG DSNT NW-N AND S

More Conditions Fewer Conditions

Pression 29.96 pouce
Visibilité 10.0 Miles terrestres
Nuages Couvert 9000 ft
Point de rosée 50 ° F
Humidité 53%
Précipitations 0.00 pouce
Profondeur de la couche neigeuse Non disponible.
UV 0 sur 12
Pollen 5.30 sur 12
PM2.5 Bon
Flu Activity Non disponible.
SPECI KHIF 190740Z AUTO 06016G20KT 10SM OVC090 20/10 A2996 RMK AO2 WSHFT 28 LTG DSNT NW-N AND S

More Conditions Fewer Conditions

10-Day Weather Forecast

Almanac

Astronomie

Sep. 19, 2014 Lever Coucher
Temps réel 07:12 MDT 19:29 MDT
Crépuscule civil 06:44 MDT 19:57 MDT
Crépuscule nautique 06:12 MDT 20:29 MDT
Crépuscule astronomique 05:39 MDT 21:02 MDT
Lune 02:59 MDT 17:02 MDT
Durée de lumière visible 13h 12m
Longueur du jour
12h 17m
Tomorrow will be 2m 43s shorter.
Lune descendante, 21% of the Moon is Illuminated
Aujourd'hui
Lune descendante
Sep 24
Nouveau
Oct 1
Premier quartier
Oct 8
Pleine lune
Oct 15
Dernier quartier

Extrêmes aujourd'hui

State Highs State Lows

Community

WunderPhotos

Upload Photos

1,754,578 Photos téléchargées !

Nearby

Qualité de l'air

  Qualité de l'air Indice de la qualité de l'air Polluant
Hier Bon
OZONE
Hier Bon
PM10
Actuel Bon
PM2.5
vendredi Bon
OZONE
samedi Bon
OZONE

Épaisseur de neige

Station Depth Altitude
Rock Creek 0 in 7900 ft
Parrish Creek 0 in 7740 ft
Ben Lomond Trail 2 in 6000 ft
King's Cabin 0 in 8730 ft
Gooseberry R.S. 0 in 7920 ft

Activité sismique

Ville Distance Mag. Time & Date
No recent earthquake activity has been reported nearby.
Minimum magnitude displayed is 2.5.

Températures des eaux côtières

Lieu Température
Aucun rapport de station

Stations météo à proximité